sensor_id;sensor_type;location;lat;lon;timestamp;P1;durP1;ratioP1;P2;durP2;ratioP2
61250;SDS011;47126;47.508;8.590;2022-07-23T00:00:16;21.00;;;14.52;;
61250;SDS011;47126;47.508;8.590;2022-07-23T00:02:43;25.17;;;16.42;;
61250;SDS011;47126;47.508;8.590;2022-07-23T00:05:09;22.85;;;16.25;;
61250;SDS011;47126;47.508;8.590;2022-07-23T00:07:35;21.35;;;16.08;;
61250;SDS011;47126;47.508;8.590;2022-07-23T00:10:02;27.50;;;17.15;;
61250;SDS011;47126;47.508;8.590;2022-07-23T00:12:28;20.10;;;14.43;;
61250;SDS011;47126;47.508;8.590;2022-07-23T00:14:54;24.27;;;17.27;;
61250;SDS011;47126;47.508;8.590;2022-07-23T00:17:20;22.67;;;15.65;;
61250;SDS011;47126;47.508;8.590;2022-07-23T00:19:46;22.70;;;16.02;;
61250;SDS011;47126;47.508;8.590;2022-07-23T00:22:12;26.35;;;17.48;;
61250;SDS011;47126;47.508;8.590;2022-07-23T00:24:38;26.35;;;18.35;;
61250;SDS011;47126;47.508;8.590;2022-07-23T00:27:04;22.65;;;17.63;;
61250;SDS011;47126;47.508;8.590;2022-07-23T00:29:30;24.92;;;16.85;;
61250;SDS011;47126;47.508;8.590;2022-07-23T00:31:56;25.48;;;17.50;;
61250;SDS011;47126;47.508;8.590;2022-07-23T00:34:22;23.23;;;16.67;;
61250;SDS011;47126;47.508;8.590;2022-07-23T00:36:48;25.05;;;17.65;;
61250;SDS011;47126;47.508;8.590;2022-07-23T00:39:14;24.95;;;16.75;;
61250;SDS011;47126;47.508;8.590;2022-07-23T00:41:40;24.75;;;17.05;;
61250;SDS011;47126;47.508;8.590;2022-07-23T00:46:44;23.23;;;16.00;;
61250;SDS011;47126;47.508;8.590;2022-07-23T00:49:11;23.27;;;17.42;;
61250;SDS011;47126;47.508;8.590;2022-07-23T00:51:36;23.02;;;16.75;;
61250;SDS011;47126;47.508;8.590;2022-07-23T00:54:02;24.65;;;17.45;;
61250;SDS011;47126;47.508;8.590;2022-07-23T00:56:29;23.73;;;17.73;;
61250;SDS011;47126;47.508;8.590;2022-07-23T00:58:55;25.35;;;17.42;;
61250;SDS011;47126;47.508;8.590;2022-07-23T01:01:21;24.20;;;16.60;;
61250;SDS011;47126;47.508;8.590;2022-07-23T01:03:47;22.50;;;17.13;;
61250;SDS011;47126;47.508;8.590;2022-07-23T01:06:14;23.85;;;16.23;;
61250;SDS011;47126;47.508;8.590;2022-07-23T01:08:39;26.50;;;17.75;;
61250;SDS011;47126;47.508;8.590;2022-07-23T01:11:06;23.40;;;16.75;;
61250;SDS011;47126;47.508;8.590;2022-07-23T01:13:32;22.00;;;15.90;;
61250;SDS011;47126;47.508;8.590;2022-07-23T01:15:57;20.73;;;15.95;;
61250;SDS011;47126;47.508;8.590;2022-07-23T01:18:23;25.73;;;16.48;;
61250;SDS011;47126;47.508;8.590;2022-07-23T01:20:49;22.60;;;15.68;;
61250;SDS011;47126;47.508;8.590;2022-07-23T01:23:15;23.85;;;15.93;;
61250;SDS011;47126;47.508;8.590;2022-07-23T01:25:48;25.30;;;15.13;;
61250;SDS011;47126;47.508;8.590;2022-07-23T01:28:14;24.27;;;17.55;;
61250;SDS011;47126;47.508;8.590;2022-07-23T01:30:41;21.17;;;14.98;;
61250;SDS011;47126;47.508;8.590;2022-07-23T01:33:07;20.63;;;15.20;;
61250;SDS011;47126;47.508;8.590;2022-07-23T01:35:33;24.73;;;17.00;;
61250;SDS011;47126;47.508;8.590;2022-07-23T01:37:59;22.45;;;16.35;;
61250;SDS011;47126;47.508;8.590;2022-07-23T01:40:25;27.13;;;16.20;;
61250;SDS011;47126;47.508;8.590;2022-07-23T01:42:51;26.35;;;15.98;;
61250;SDS011;47126;47.508;8.590;2022-07-23T01:45:17;21.90;;;15.55;;
61250;SDS011;47126;47.508;8.590;2022-07-23T01:47:43;21.35;;;15.15;;
61250;SDS011;47126;47.508;8.590;2022-07-23T01:50:09;21.20;;;13.30;;
61250;SDS011;47126;47.508;8.590;2022-07-23T01:52:35;18.60;;;12.70;;
61250;SDS011;47126;47.508;8.590;2022-07-23T01:55:01;18.67;;;13.90;;
61250;SDS011;47126;47.508;8.590;2022-07-23T01:57:27;21.30;;;13.48;;
61250;SDS011;47126;47.508;8.590;2022-07-23T01:59:53;20.38;;;13.45;;
61250;SDS011;47126;47.508;8.590;2022-07-23T02:02:19;17.08;;;13.73;;
61250;SDS011;47126;47.508;8.590;2022-07-23T02:04:45;19.70;;;13.18;;
61250;SDS011;47126;47.508;8.590;2022-07-23T02:07:11;19.50;;;12.40;;
61250;SDS011;47126;47.508;8.590;2022-07-23T02:09:38;19.83;;;12.93;;
61250;SDS011;47126;47.508;8.590;2022-07-23T02:12:04;21.92;;;14.27;;
61250;SDS011;47126;47.508;8.590;2022-07-23T02:14:30;19.95;;;14.02;;
61250;SDS011;47126;47.508;8.590;2022-07-23T02:16:55;20.95;;;13.63;;
61250;SDS011;47126;47.508;8.590;2022-07-23T02:19:21;18.55;;;13.88;;
61250;SDS011;47126;47.508;8.590;2022-07-23T02:21:48;19.13;;;12.70;;
61250;SDS011;47126;47.508;8.590;2022-07-23T02:24:14;15.88;;;12.38;;
61250;SDS011;47126;47.508;8.590;2022-07-23T02:26:40;17.98;;;12.30;;
61250;SDS011;47126;47.508;8.590;2022-07-23T02:29:06;19.55;;;12.88;;
61250;SDS011;47126;47.508;8.590;2022-07-23T02:31:32;20.30;;;12.10;;
61250;SDS011;47126;47.508;8.590;2022-07-23T02:33:58;19.27;;;11.73;;
61250;SDS011;47126;47.508;8.590;2022-07-23T02:36:24;16.45;;;11.30;;
61250;SDS011;47126;47.508;8.590;2022-07-23T02:38:50;15.70;;;10.88;;
61250;SDS011;47126;47.508;8.590;2022-07-23T02:41:16;14.55;;;11.00;;
61250;SDS011;47126;47.508;8.590;2022-07-23T02:43:42;15.82;;;11.40;;
61250;SDS011;47126;47.508;8.590;2022-07-23T02:46:08;15.52;;;10.75;;
61250;SDS011;47126;47.508;8.590;2022-07-23T02:48:34;16.88;;;11.45;;
61250;SDS011;47126;47.508;8.590;2022-07-23T02:51:00;17.40;;;10.82;;
61250;SDS011;47126;47.508;8.590;2022-07-23T02:53:26;15.20;;;10.88;;
61250;SDS011;47126;47.508;8.590;2022-07-23T02:55:52;14.20;;;10.73;;
61250;SDS011;47126;47.508;8.590;2022-07-23T02:58:18;18.75;;;12.07;;
61250;SDS011;47126;47.508;8.590;2022-07-23T03:00:44;19.23;;;12.20;;
61250;SDS011;47126;47.508;8.590;2022-07-23T03:03:10;16.95;;;12.40;;
61250;SDS011;47126;47.508;8.590;2022-07-23T03:05:36;17.70;;;12.05;;
61250;SDS011;47126;47.508;8.590;2022-07-23T03:08:02;17.13;;;11.85;;
61250;SDS011;47126;47.508;8.590;2022-07-23T03:10:28;20.77;;;12.65;;
61250;SDS011;47126;47.508;8.590;2022-07-23T03:12:54;19.70;;;12.75;;
61250;SDS011;47126;47.508;8.590;2022-07-23T03:15:20;18.70;;;13.40;;
61250;SDS011;47126;47.508;8.590;2022-07-23T03:17:46;16.35;;;11.43;;
61250;SDS011;47126;47.508;8.590;2022-07-23T03:20:12;16.90;;;12.07;;
61250;SDS011;47126;47.508;8.590;2022-07-23T03:22:38;15.00;;;10.65;;
61250;SDS011;47126;47.508;8.590;2022-07-23T03:25:04;16.52;;;11.35;;
61250;SDS011;47126;47.508;8.590;2022-07-23T03:27:30;15.90;;;12.05;;
61250;SDS011;47126;47.508;8.590;2022-07-23T03:29:57;16.48;;;12.40;;
61250;SDS011;47126;47.508;8.590;2022-07-23T03:32:23;18.02;;;12.93;;
61250;SDS011;47126;47.508;8.590;2022-07-23T03:34:50;17.88;;;12.82;;
61250;SDS011;47126;47.508;8.590;2022-07-23T03:37:16;19.52;;;12.18;;
61250;SDS011;47126;47.508;8.590;2022-07-23T03:39:42;14.77;;;11.55;;
61250;SDS011;47126;47.508;8.590;2022-07-23T03:42:08;18.27;;;11.65;;
61250;SDS011;47126;47.508;8.590;2022-07-23T03:44:34;17.95;;;12.27;;
61250;SDS011;47126;47.508;8.590;2022-07-23T03:47:02;18.33;;;12.68;;
61250;SDS011;47126;47.508;8.590;2022-07-23T03:49:28;17.13;;;11.82;;
61250;SDS011;47126;47.508;8.590;2022-07-23T03:51:54;17.23;;;11.90;;
61250;SDS011;47126;47.508;8.590;2022-07-23T03:54:20;18.48;;;13.27;;
61250;SDS011;47126;47.508;8.590;2022-07-23T03:56:46;17.83;;;11.98;;
61250;SDS011;47126;47.508;8.590;2022-07-23T03:59:12;19.13;;;13.07;;
61250;SDS011;47126;47.508;8.590;2022-07-23T04:01:38;19.15;;;14.55;;
61250;SDS011;47126;47.508;8.590;2022-07-23T04:04:04;16.88;;;12.80;;
61250;SDS011;47126;47.508;8.590;2022-07-23T04:06:30;20.25;;;12.23;;
61250;SDS011;47126;47.508;8.590;2022-07-23T04:08:57;19.10;;;13.55;;
61250;SDS011;47126;47.508;8.590;2022-07-23T04:11:23;20.67;;;13.27;;
61250;SDS011;47126;47.508;8.590;2022-07-23T04:13:49;25.48;;;14.70;;
61250;SDS011;47126;47.508;8.590;2022-07-23T04:16:15;24.90;;;14.05;;
61250;SDS011;47126;47.508;8.590;2022-07-23T04:18:41;22.55;;;14.70;;
61250;SDS011;47126;47.508;8.590;2022-07-23T04:21:07;23.15;;;15.55;;
61250;SDS011;47126;47.508;8.590;2022-07-23T04:23:33;21.05;;;15.27;;
61250;SDS011;47126;47.508;8.590;2022-07-23T04:25:59;21.83;;;14.48;;
61250;SDS011;47126;47.508;8.590;2022-07-23T04:28:25;23.35;;;17.17;;
61250;SDS011;47126;47.508;8.590;2022-07-23T04:30:51;26.05;;;16.73;;
61250;SDS011;47126;47.508;8.590;2022-07-23T04:33:17;24.05;;;16.77;;
61250;SDS011;47126;47.508;8.590;2022-07-23T04:35:44;25.45;;;16.75;;
61250;SDS011;47126;47.508;8.590;2022-07-23T04:38:10;24.92;;;16.80;;
61250;SDS011;47126;47.508;8.590;2022-07-23T04:40:36;26.38;;;17.70;;
61250;SDS011;47126;47.508;8.590;2022-07-23T04:43:02;26.92;;;17.63;;
61250;SDS011;47126;47.508;8.590;2022-07-23T04:45:28;25.45;;;18.05;;
61250;SDS011;47126;47.508;8.590;2022-07-23T04:47:54;30.35;;;17.88;;
61250;SDS011;47126;47.508;8.590;2022-07-23T04:50:21;24.80;;;16.75;;
61250;SDS011;47126;47.508;8.590;2022-07-23T04:52:48;24.35;;;16.83;;
61250;SDS011;47126;47.508;8.590;2022-07-23T04:55:14;22.63;;;16.63;;
61250;SDS011;47126;47.508;8.590;2022-07-23T04:57:40;27.63;;;17.90;;
61250;SDS011;47126;47.508;8.590;2022-07-23T05:00:07;25.20;;;17.48;;
61250;SDS011;47126;47.508;8.590;2022-07-23T05:02:33;29.90;;;19.80;;
61250;SDS011;47126;47.508;8.590;2022-07-23T05:04:59;30.80;;;19.13;;
61250;SDS011;47126;47.508;8.590;2022-07-23T05:07:25;23.35;;;17.60;;
61250;SDS011;47126;47.508;8.590;2022-07-23T05:09:51;25.80;;;18.20;;
61250;SDS011;47126;47.508;8.590;2022-07-23T05:12:17;24.63;;;16.92;;
61250;SDS011;47126;47.508;8.590;2022-07-23T05:14:43;26.27;;;18.85;;
61250;SDS011;47126;47.508;8.590;2022-07-23T05:17:09;27.67;;;18.58;;
61250;SDS011;47126;47.508;8.590;2022-07-23T05:19:35;24.95;;;17.00;;
61250;SDS011;47126;47.508;8.590;2022-07-23T05:22:01;27.52;;;18.70;;
61250;SDS011;47126;47.508;8.590;2022-07-23T05:24:27;26.38;;;19.15;;
61250;SDS011;47126;47.508;8.590;2022-07-23T05:26:53;27.48;;;17.77;;
61250;SDS011;47126;47.508;8.590;2022-07-23T05:29:19;25.60;;;18.15;;
61250;SDS011;47126;47.508;8.590;2022-07-23T05:31:45;26.73;;;18.45;;
61250;SDS011;47126;47.508;8.590;2022-07-23T05:34:11;26.70;;;17.83;;
61250;SDS011;47126;47.508;8.590;2022-07-23T05:36:37;24.35;;;19.33;;
61250;SDS011;47126;47.508;8.590;2022-07-23T05:39:04;25.70;;;17.55;;
61250;SDS011;47126;47.508;8.590;2022-07-23T05:41:30;26.02;;;16.33;;
61250;SDS011;47126;47.508;8.590;2022-07-23T05:43:56;24.65;;;16.17;;
61250;SDS011;47126;47.508;8.590;2022-07-23T05:46:22;25.30;;;17.38;;
61250;SDS011;47126;47.508;8.590;2022-07-23T05:48:48;28.92;;;17.35;;
61250;SDS011;47126;47.508;8.590;2022-07-23T05:51:23;26.98;;;18.30;;
61250;SDS011;47126;47.508;8.590;2022-07-23T05:53:49;29.55;;;19.77;;
61250;SDS011;47126;47.508;8.590;2022-07-23T05:56:15;32.83;;;19.52;;
61250;SDS011;47126;47.508;8.590;2022-07-23T05:58:42;29.38;;;19.80;;
61250;SDS011;47126;47.508;8.590;2022-07-23T06:01:08;29.27;;;19.25;;
61250;SDS011;47126;47.508;8.590;2022-07-23T06:03:34;28.20;;;20.15;;
61250;SDS011;47126;47.508;8.590;2022-07-23T06:06:00;27.77;;;19.10;;
61250;SDS011;47126;47.508;8.590;2022-07-23T06:08:26;27.88;;;20.83;;
61250;SDS011;47126;47.508;8.590;2022-07-23T06:10:52;29.27;;;20.30;;
61250;SDS011;47126;47.508;8.590;2022-07-23T06:13:18;26.55;;;19.58;;
61250;SDS011;47126;47.508;8.590;2022-07-23T06:15:44;73.95;;;54.28;;
61250;SDS011;47126;47.508;8.590;2022-07-23T06:18:10;54.88;;;35.40;;
61250;SDS011;47126;47.508;8.590;2022-07-23T06:20:36;32.65;;;18.58;;
61250;SDS011;47126;47.508;8.590;2022-07-23T06:23:03;27.10;;;18.50;;
61250;SDS011;47126;47.508;8.590;2022-07-23T06:25:29;25.40;;;18.40;;
61250;SDS011;47126;47.508;8.590;2022-07-23T06:27:55;26.55;;;20.63;;
61250;SDS011;47126;47.508;8.590;2022-07-23T06:30:21;28.83;;;20.92;;
61250;SDS011;47126;47.508;8.590;2022-07-23T06:32:48;27.98;;;22.13;;
61250;SDS011;47126;47.508;8.590;2022-07-23T06:35:14;23.98;;;15.55;;
61250;SDS011;47126;47.508;8.590;2022-07-23T06:37:41;21.25;;;15.65;;
61250;SDS011;47126;47.508;8.590;2022-07-23T06:40:07;22.83;;;15.75;;
61250;SDS011;47126;47.508;8.590;2022-07-23T06:42:33;31.58;;;18.08;;
61250;SDS011;47126;47.508;8.590;2022-07-23T06:45:02;24.30;;;16.20;;
61250;SDS011;47126;47.508;8.590;2022-07-23T06:47:28;27.77;;;17.40;;
61250;SDS011;47126;47.508;8.590;2022-07-23T06:49:55;25.67;;;16.40;;
61250;SDS011;47126;47.508;8.590;2022-07-23T06:52:21;21.83;;;15.10;;
61250;SDS011;47126;47.508;8.590;2022-07-23T06:54:47;25.02;;;15.13;;
61250;SDS011;47126;47.508;8.590;2022-07-23T06:57:14;19.50;;;13.68;;
61250;SDS011;47126;47.508;8.590;2022-07-23T06:59:40;21.02;;;14.00;;
61250;SDS011;47126;47.508;8.590;2022-07-23T07:02:07;18.38;;;13.23;;
61250;SDS011;47126;47.508;8.590;2022-07-23T07:04:33;25.55;;;20.08;;
61250;SDS011;47126;47.508;8.590;2022-07-23T07:06:59;16.45;;;12.63;;
61250;SDS011;47126;47.508;8.590;2022-07-23T07:09:25;19.90;;;16.02;;
61250;SDS011;47126;47.508;8.590;2022-07-23T07:11:51;48.22;;;40.80;;
61250;SDS011;47126;47.508;8.590;2022-07-23T07:14:17;21.63;;;16.48;;
61250;SDS011;47126;47.508;8.590;2022-07-23T07:16:44;20.80;;;14.13;;
61250;SDS011;47126;47.508;8.590;2022-07-23T07:19:10;25.10;;;14.55;;
61250;SDS011;47126;47.508;8.590;2022-07-23T07:21:36;20.05;;;13.68;;
61250;SDS011;47126;47.508;8.590;2022-07-23T07:24:02;20.45;;;11.93;;
61250;SDS011;47126;47.508;8.590;2022-07-23T07:26:28;15.60;;;11.40;;
61250;SDS011;47126;47.508;8.590;2022-07-23T07:28:56;20.08;;;11.20;;
61250;SDS011;47126;47.508;8.590;2022-07-23T07:31:22;18.13;;;10.60;;
61250;SDS011;47126;47.508;8.590;2022-07-23T07:33:48;16.75;;;11.25;;
61250;SDS011;47126;47.508;8.590;2022-07-23T07:36:14;19.55;;;12.60;;
61250;SDS011;47126;47.508;8.590;2022-07-23T07:38:40;19.25;;;12.65;;
61250;SDS011;47126;47.508;8.590;2022-07-23T07:41:06;17.77;;;12.63;;
61250;SDS011;47126;47.508;8.590;2022-07-23T07:43:35;20.00;;;12.50;;
61250;SDS011;47126;47.508;8.590;2022-07-23T07:46:01;25.02;;;18.98;;
61250;SDS011;47126;47.508;8.590;2022-07-23T07:48:27;22.85;;;16.15;;
61250;SDS011;47126;47.508;8.590;2022-07-23T07:50:53;20.55;;;13.80;;
61250;SDS011;47126;47.508;8.590;2022-07-23T07:53:19;20.20;;;13.55;;
61250;SDS011;47126;47.508;8.590;2022-07-23T07:55:45;18.58;;;13.05;;
61250;SDS011;47126;47.508;8.590;2022-07-23T07:58:11;21.23;;;13.57;;
61250;SDS011;47126;47.508;8.590;2022-07-23T08:00:37;19.63;;;14.15;;
61250;SDS011;47126;47.508;8.590;2022-07-23T08:03:03;22.88;;;14.60;;
61250;SDS011;47126;47.508;8.590;2022-07-23T08:05:29;19.67;;;13.88;;
61250;SDS011;47126;47.508;8.590;2022-07-23T08:07:56;21.40;;;16.15;;
61250;SDS011;47126;47.508;8.590;2022-07-23T08:10:22;22.02;;;16.27;;
61250;SDS011;47126;47.508;8.590;2022-07-23T08:12:49;23.95;;;16.50;;
61250;SDS011;47126;47.508;8.590;2022-07-23T08:15:16;20.67;;;15.15;;
61250;SDS011;47126;47.508;8.590;2022-07-23T08:17:43;21.55;;;15.93;;
61250;SDS011;47126;47.508;8.590;2022-07-23T08:20:10;22.13;;;15.90;;
61250;SDS011;47126;47.508;8.590;2022-07-23T08:22:47;21.70;;;15.30;;
61250;SDS011;47126;47.508;8.590;2022-07-23T08:25:13;20.90;;;15.23;;
61250;SDS011;47126;47.508;8.590;2022-07-23T08:27:40;26.83;;;23.23;;
61250;SDS011;47126;47.508;8.590;2022-07-23T08:30:06;35.13;;;27.55;;
61250;SDS011;47126;47.508;8.590;2022-07-23T08:32:32;23.00;;;15.00;;
61250;SDS011;47126;47.508;8.590;2022-07-23T08:34:58;22.45;;;15.05;;
61250;SDS011;47126;47.508;8.590;2022-07-23T08:37:24;21.27;;;15.63;;
61250;SDS011;47126;47.508;8.590;2022-07-23T08:39:50;20.73;;;15.13;;
61250;SDS011;47126;47.508;8.590;2022-07-23T08:42:16;18.63;;;13.77;;
61250;SDS011;47126;47.508;8.590;2022-07-23T08:44:44;20.20;;;15.25;;
61250;SDS011;47126;47.508;8.590;2022-07-23T08:47:12;17.63;;;13.90;;
61250;SDS011;47126;47.508;8.590;2022-07-23T08:49:38;21.48;;;15.07;;
61250;SDS011;47126;47.508;8.590;2022-07-23T08:52:05;20.75;;;16.13;;
61250;SDS011;47126;47.508;8.590;2022-07-23T08:54:31;19.67;;;15.32;;
61250;SDS011;47126;47.508;8.590;2022-07-23T08:56:57;19.63;;;14.90;;
61250;SDS011;47126;47.508;8.590;2022-07-23T08:59:23;22.27;;;16.27;;
61250;SDS011;47126;47.508;8.590;2022-07-23T09:01:51;22.58;;;15.45;;
61250;SDS011;47126;47.508;8.590;2022-07-23T09:04:17;22.83;;;15.10;;
61250;SDS011;47126;47.508;8.590;2022-07-23T09:06:44;21.23;;;14.35;;
61250;SDS011;47126;47.508;8.590;2022-07-23T09:09:17;24.30;;;16.67;;
61250;SDS011;47126;47.508;8.590;2022-07-23T09:12:01;19.85;;;14.98;;
61250;SDS011;47126;47.508;8.590;2022-07-23T09:14:42;20.95;;;15.65;;
61250;SDS011;47126;47.508;8.590;2022-07-23T09:17:12;22.15;;;15.93;;
61250;SDS011;47126;47.508;8.590;2022-07-23T09:19:38;22.00;;;15.25;;
61250;SDS011;47126;47.508;8.590;2022-07-23T09:22:24;18.75;;;14.02;;
61250;SDS011;47126;47.508;8.590;2022-07-23T09:27:55;18.00;;;14.13;;
61250;SDS011;47126;47.508;8.590;2022-07-23T09:30:25;19.05;;;13.35;;
61250;SDS011;47126;47.508;8.590;2022-07-23T09:35:53;16.98;;;12.38;;
61250;SDS011;47126;47.508;8.590;2022-07-23T09:38:20;20.05;;;14.15;;
61250;SDS011;47126;47.508;8.590;2022-07-23T09:40:47;17.67;;;13.55;;
61250;SDS011;47126;47.508;8.590;2022-07-23T09:43:31;18.10;;;12.25;;
61250;SDS011;47126;47.508;8.590;2022-07-23T09:48:42;16.17;;;10.68;;
61250;SDS011;47126;47.508;8.590;2022-07-23T09:51:08;14.50;;;10.65;;
61250;SDS011;47126;47.508;8.590;2022-07-23T09:53:34;16.05;;;11.77;;
61250;SDS011;47126;47.508;8.590;2022-07-23T09:56:00;15.32;;;10.68;;
61250;SDS011;47126;47.508;8.590;2022-07-23T09:58:26;15.68;;;11.30;;
61250;SDS011;47126;47.508;8.590;2022-07-23T10:00:53;28.02;;;21.63;;
61250;SDS011;47126;47.508;8.590;2022-07-23T10:03:19;17.95;;;13.48;;
61250;SDS011;47126;47.508;8.590;2022-07-23T10:05:46;16.55;;;11.63;;
61250;SDS011;47126;47.508;8.590;2022-07-23T10:08:12;15.63;;;12.27;;
61250;SDS011;47126;47.508;8.590;2022-07-23T10:10:39;17.35;;;12.63;;
61250;SDS011;47126;47.508;8.590;2022-07-23T10:13:05;15.30;;;12.00;;
61250;SDS011;47126;47.508;8.590;2022-07-23T10:15:47;16.98;;;12.68;;
61250;SDS011;47126;47.508;8.590;2022-07-23T10:18:13;16.63;;;12.23;;
61250;SDS011;47126;47.508;8.590;2022-07-23T10:20:39;18.13;;;12.05;;
61250;SDS011;47126;47.508;8.590;2022-07-23T10:23:27;15.43;;;12.38;;
61250;SDS011;47126;47.508;8.590;2022-07-23T10:34:12;19.48;;;12.60;;
61250;SDS011;47126;47.508;8.590;2022-07-23T10:36:41;21.63;;;12.80;;
61250;SDS011;47126;47.508;8.590;2022-07-23T10:41:53;16.02;;;11.52;;
61250;SDS011;47126;47.508;8.590;2022-07-23T10:44:37;15.20;;;11.77;;
61250;SDS011;47126;47.508;8.590;2022-07-23T10:47:04;18.35;;;12.80;;
61250;SDS011;47126;47.508;8.590;2022-07-23T10:49:31;17.42;;;12.02;;
61250;SDS011;47126;47.508;8.590;2022-07-23T10:52:16;17.08;;;12.48;;
61250;SDS011;47126;47.508;8.590;2022-07-23T10:57:09;17.75;;;13.10;;
61250;SDS011;47126;47.508;8.590;2022-07-23T11:02:21;17.52;;;12.70;;
61250;SDS011;47126;47.508;8.590;2022-07-23T11:04:48;17.52;;;12.80;;
61250;SDS011;47126;47.508;8.590;2022-07-23T11:07:15;17.60;;;13.52;;
61250;SDS011;47126;47.508;8.590;2022-07-23T11:09:42;20.90;;;13.77;;
61250;SDS011;47126;47.508;8.590;2022-07-23T11:17:27;20.98;;;15.25;;
61250;SDS011;47126;47.508;8.590;2022-07-23T11:22:38;19.13;;;14.00;;
61250;SDS011;47126;47.508;8.590;2022-07-23T11:25:05;20.45;;;13.30;;
61250;SDS011;47126;47.508;8.590;2022-07-23T11:27:41;17.50;;;12.05;;
61250;SDS011;47126;47.508;8.590;2022-07-23T11:30:07;15.52;;;12.23;;
61250;SDS011;47126;47.508;8.590;2022-07-23T11:32:34;15.93;;;12.43;;
61250;SDS011;47126;47.508;8.590;2022-07-23T11:35:03;17.02;;;12.13;;
61250;SDS011;47126;47.508;8.590;2022-07-23T11:37:44;16.77;;;11.27;;
61250;SDS011;47126;47.508;8.590;2022-07-23T11:40:14;19.27;;;11.93;;
61250;SDS011;47126;47.508;8.590;2022-07-23T11:45:23;15.27;;;10.73;;
61250;SDS011;47126;47.508;8.590;2022-07-23T11:47:49;14.38;;;10.65;;
61250;SDS011;47126;47.508;8.590;2022-07-23T11:50:15;16.58;;;10.98;;
61250;SDS011;47126;47.508;8.590;2022-07-23T11:52:41;13.85;;;10.57;;
61250;SDS011;47126;47.508;8.590;2022-07-23T11:55:08;17.83;;;10.63;;
61250;SDS011;47126;47.508;8.590;2022-07-23T11:57:36;14.55;;;10.30;;
61250;SDS011;47126;47.508;8.590;2022-07-23T12:00:10;13.63;;;10.25;;
61250;SDS011;47126;47.508;8.590;2022-07-23T12:02:47;13.27;;;10.38;;
61250;SDS011;47126;47.508;8.590;2022-07-23T12:05:17;15.95;;;10.88;;
61250;SDS011;47126;47.508;8.590;2022-07-23T12:07:44;15.18;;;10.00;;
61250;SDS011;47126;47.508;8.590;2022-07-23T12:12:54;12.50;;;9.88;;
61250;SDS011;47126;47.508;8.590;2022-07-23T12:15:21;13.32;;;10.40;;
61250;SDS011;47126;47.508;8.590;2022-07-23T12:17:48;15.05;;;10.63;;
61250;SDS011;47126;47.508;8.590;2022-07-23T12:20:18;13.98;;;10.60;;
61250;SDS011;47126;47.508;8.590;2022-07-23T12:22:46;14.02;;;10.77;;
61250;SDS011;47126;47.508;8.590;2022-07-23T12:25:17;13.98;;;10.40;;
61250;SDS011;47126;47.508;8.590;2022-07-23T12:30:22;15.05;;;10.32;;
61250;SDS011;47126;47.508;8.590;2022-07-23T12:32:50;13.23;;;10.90;;
61250;SDS011;47126;47.508;8.590;2022-07-23T12:35:16;13.32;;;10.15;;
61250;SDS011;47126;47.508;8.590;2022-07-23T12:37:43;17.05;;;11.25;;
61250;SDS011;47126;47.508;8.590;2022-07-23T12:40:21;14.35;;;10.20;;
61250;SDS011;47126;47.508;8.590;2022-07-23T12:42:48;13.00;;;10.23;;
61250;SDS011;47126;47.508;8.590;2022-07-23T12:45:14;12.20;;;9.48;;
61250;SDS011;47126;47.508;8.590;2022-07-23T12:50:41;13.70;;;9.65;;
61250;SDS011;47126;47.508;8.590;2022-07-23T12:55:38;13.65;;;9.65;;
61250;SDS011;47126;47.508;8.590;2022-07-23T12:58:17;14.20;;;10.25;;
61250;SDS011;47126;47.508;8.590;2022-07-23T13:00:57;12.53;;;10.10;;
61250;SDS011;47126;47.508;8.590;2022-07-23T13:03:28;13.95;;;10.27;;
61250;SDS011;47126;47.508;8.590;2022-07-23T13:05:54;12.05;;;9.65;;
61250;SDS011;47126;47.508;8.590;2022-07-23T13:08:21;13.00;;;10.10;;
61250;SDS011;47126;47.508;8.590;2022-07-23T13:10:48;14.00;;;9.75;;
61250;SDS011;47126;47.508;8.590;2022-07-23T13:13:16;13.48;;;9.55;;
61250;SDS011;47126;47.508;8.590;2022-07-23T13:15:43;14.60;;;9.48;;
61250;SDS011;47126;47.508;8.590;2022-07-23T13:18:09;12.55;;;9.63;;
61250;SDS011;47126;47.508;8.590;2022-07-23T13:20:38;12.82;;;9.30;;
61250;SDS011;47126;47.508;8.590;2022-07-23T13:23:05;13.60;;;10.02;;
61250;SDS011;47126;47.508;8.590;2022-07-23T13:25:31;11.27;;;8.98;;
61250;SDS011;47126;47.508;8.590;2022-07-23T13:27:57;14.00;;;10.32;;
61250;SDS011;47126;47.508;8.590;2022-07-23T13:30:23;14.38;;;10.40;;
61250;SDS011;47126;47.508;8.590;2022-07-23T13:32:49;12.07;;;9.23;;
61250;SDS011;47126;47.508;8.590;2022-07-23T13:35:15;11.20;;;9.18;;
61250;SDS011;47126;47.508;8.590;2022-07-23T13:37:41;14.88;;;10.15;;
61250;SDS011;47126;47.508;8.590;2022-07-23T13:40:07;12.25;;;10.07;;
61250;SDS011;47126;47.508;8.590;2022-07-23T13:42:33;12.85;;;9.68;;
61250;SDS011;47126;47.508;8.590;2022-07-23T13:44:59;12.55;;;10.20;;
61250;SDS011;47126;47.508;8.590;2022-07-23T13:47:25;13.73;;;9.77;;
61250;SDS011;47126;47.508;8.590;2022-07-23T13:49:51;13.35;;;10.27;;
61250;SDS011;47126;47.508;8.590;2022-07-23T13:52:17;12.60;;;10.00;;
61250;SDS011;47126;47.508;8.590;2022-07-23T13:54:43;14.20;;;9.73;;
61250;SDS011;47126;47.508;8.590;2022-07-23T13:57:09;15.23;;;10.30;;
61250;SDS011;47126;47.508;8.590;2022-07-23T13:59:35;13.85;;;10.07;;
61250;SDS011;47126;47.508;8.590;2022-07-23T14:02:02;15.05;;;10.35;;
61250;SDS011;47126;47.508;8.590;2022-07-23T14:04:28;13.20;;;10.32;;
61250;SDS011;47126;47.508;8.590;2022-07-23T14:06:55;14.20;;;10.13;;
61250;SDS011;47126;47.508;8.590;2022-07-23T14:09:21;11.95;;;10.00;;
61250;SDS011;47126;47.508;8.590;2022-07-23T14:11:47;12.18;;;9.38;;
61250;SDS011;47126;47.508;8.590;2022-07-23T14:14:14;12.95;;;9.80;;
61250;SDS011;47126;47.508;8.590;2022-07-23T14:16:40;13.63;;;9.95;;
61250;SDS011;47126;47.508;8.590;2022-07-23T14:19:06;13.63;;;10.20;;
61250;SDS011;47126;47.508;8.590;2022-07-23T14:21:32;12.70;;;9.40;;
61250;SDS011;47126;47.508;8.590;2022-07-23T14:23:58;12.40;;;9.82;;
61250;SDS011;47126;47.508;8.590;2022-07-23T14:26:24;12.38;;;9.98;;
61250;SDS011;47126;47.508;8.590;2022-07-23T14:28:51;12.10;;;9.27;;
61250;SDS011;47126;47.508;8.590;2022-07-23T14:31:17;12.55;;;9.43;;
61250;SDS011;47126;47.508;8.590;2022-07-23T14:33:43;11.20;;;9.38;;
61250;SDS011;47126;47.508;8.590;2022-07-23T14:36:09;12.80;;;10.02;;
61250;SDS011;47126;47.508;8.590;2022-07-23T14:38:34;20.73;;;14.20;;
61250;SDS011;47126;47.508;8.590;2022-07-23T14:41:00;13.45;;;9.95;;
61250;SDS011;47126;47.508;8.590;2022-07-23T14:43:26;14.55;;;9.95;;
61250;SDS011;47126;47.508;8.590;2022-07-23T14:45:52;11.93;;;9.48;;
61250;SDS011;47126;47.508;8.590;2022-07-23T14:48:18;12.25;;;9.70;;
61250;SDS011;47126;47.508;8.590;2022-07-23T14:50:44;12.90;;;9.15;;
61250;SDS011;47126;47.508;8.590;2022-07-23T14:53:10;12.85;;;10.10;;
61250;SDS011;47126;47.508;8.590;2022-07-23T14:55:36;17.35;;;10.38;;
61250;SDS011;47126;47.508;8.590;2022-07-23T14:58:02;11.93;;;9.13;;
61250;SDS011;47126;47.508;8.590;2022-07-23T15:00:28;12.13;;;9.52;;
61250;SDS011;47126;47.508;8.590;2022-07-23T15:02:54;12.02;;;9.57;;
61250;SDS011;47126;47.508;8.590;2022-07-23T15:05:20;11.52;;;9.05;;
61250;SDS011;47126;47.508;8.590;2022-07-23T15:07:47;12.13;;;9.73;;
61250;SDS011;47126;47.508;8.590;2022-07-23T15:10:13;12.32;;;10.00;;